createdAt,value
2018-01-29T00:00:06.022Z,10.10
2018-01-29T00:02:33.482Z,10.00
2018-01-29T00:05:00.935Z,10.00
2018-01-29T00:07:28.399Z,10.00
2018-01-29T00:09:55.850Z,10.00
2018-01-29T00:12:23.314Z,10.10
2018-01-29T00:14:50.770Z,10.10
2018-01-29T00:17:18.240Z,10.10
2018-01-29T00:19:46.471Z,10.10
2018-01-29T00:22:13.965Z,10.10
2018-01-29T00:24:41.418Z,10.10
2018-01-29T00:27:08.878Z,10.00
2018-01-29T00:29:36.335Z,10.00
2018-01-29T00:32:04.587Z,10.00
2018-01-29T00:34:32.042Z,10.00
2018-01-29T00:36:59.514Z,10.10
2018-01-29T00:39:26.978Z,10.10
2018-01-29T00:41:54.455Z,10.10
2018-01-29T00:44:22.645Z,10.00
2018-01-29T00:46:50.095Z,10.00
2018-01-29T00:49:17.559Z,10.00
2018-01-29T00:51:45.010Z,10.10
2018-01-29T00:54:12.777Z,10.10
2018-01-29T00:56:40.239Z,10.00
2018-01-29T00:59:07.704Z,10.00
2018-01-29T01:01:35.169Z,10.00
2018-01-29T01:04:02.751Z,10.00
2018-01-29T01:06:30.218Z,10.00
2018-01-29T01:08:57.693Z,10.10
2018-01-29T01:11:25.139Z,10.10
2018-01-29T01:13:52.658Z,10.10
2018-01-29T01:16:20.135Z,9.90
2018-01-29T01:18:48.351Z,9.90
2018-01-29T01:21:16.591Z,9.90
2018-01-29T01:23:44.046Z,9.90
2018-01-29T01:26:11.533Z,9.90
2018-01-29T01:28:38.984Z,9.90
2018-01-29T01:31:06.454Z,10.00
2018-01-29T01:33:33.902Z,9.90
2018-01-29T01:36:01.358Z,9.90
2018-01-29T01:38:28.820Z,9.90
2018-01-29T01:40:56.274Z,9.80
2018-01-29T01:43:23.734Z,9.90
2018-01-29T01:45:51.199Z,9.90
2018-01-29T01:48:18.658Z,10.00
2018-01-29T01:50:46.114Z,10.00
2018-01-29T01:53:13.581Z,10.00
2018-01-29T01:55:41.039Z,10.10
2018-01-29T01:58:08.529Z,10.10
2018-01-29T02:00:36.001Z,10.10
2018-01-29T02:03:03.475Z,10.10
2018-01-29T02:05:30.939Z,10.10
2018-01-29T02:07:58.419Z,10.10
2018-01-29T02:10:26.646Z,10.10
2018-01-29T02:12:54.102Z,10.10
2018-01-29T02:15:21.574Z,10.10
2018-01-29T02:17:49.044Z,10.20
2018-01-29T02:20:16.528Z,10.10
2018-01-29T02:22:43.983Z,10.10
2018-01-29T02:25:11.459Z,10.10
2018-01-29T02:27:38.924Z,10.20
2018-01-29T02:30:06.394Z,10.10
2018-01-29T02:32:33.862Z,10.10
2018-01-29T02:35:01.334Z,10.10
2018-01-29T02:37:28.790Z,10.10
2018-01-29T02:39:56.262Z,10.10
2018-01-29T02:42:23.722Z,10.10
2018-01-29T02:44:51.183Z,10.10
2018-01-29T02:47:18.648Z,10.10
2018-01-29T02:49:46.882Z,10.10
2018-01-29T02:52:14.348Z,10.10
2018-01-29T02:54:41.816Z,10.10
2018-01-29T02:57:09.300Z,10.10
2018-01-29T02:59:36.851Z,10.00
2018-01-29T03:02:05.084Z,10.10
2018-01-29T03:04:32.538Z,10.00
2018-01-29T03:07:00.016Z,10.00
2018-01-29T03:09:27.479Z,10.00
2018-01-29T03:11:54.951Z,10.00
2018-01-29T03:14:22.412Z,10.00
2018-01-29T03:16:49.876Z,10.10
2018-01-29T03:19:17.338Z,10.10
2018-01-29T03:21:44.794Z,10.10
2018-01-29T03:24:12.272Z,10.20
2018-01-29T03:26:39.740Z,10.20
2018-01-29T03:29:07.209Z,10.20
2018-01-29T03:31:34.663Z,10.20
2018-01-29T03:34:02.123Z,10.20
2018-01-29T03:36:29.578Z,10.10
2018-01-29T03:38:57.071Z,10.20
2018-01-29T03:41:24.559Z,10.10
2018-01-29T03:43:52.031Z,10.10
2018-01-29T03:46:19.494Z,10.10
2018-01-29T03:48:46.950Z,10.10
2018-01-29T03:51:14.414Z,10.10
2018-01-29T03:53:41.884Z,10.10
2018-01-29T03:56:09.364Z,10.20
2018-01-29T03:58:36.818Z,10.20
2018-01-29T04:01:04.291Z,10.20
2018-01-29T04:03:31.756Z,10.20
2018-01-29T04:05:59.222Z,10.20
2018-01-29T04:08:26.689Z,10.20
2018-01-29T04:10:54.147Z,10.20
2018-01-29T04:13:21.620Z,10.20
2018-01-29T04:15:49.083Z,10.20
2018-01-29T04:18:16.543Z,10.20
2018-01-29T04:20:44.018Z,10.30
2018-01-29T04:23:11.471Z,10.30
2018-01-29T04:25:38.935Z,10.30
2018-01-29T04:28:06.419Z,10.30
2018-01-29T04:30:33.884Z,10.40
2018-01-29T04:33:01.342Z,10.30
2018-01-29T04:35:28.794Z,10.30
2018-01-29T04:37:56.254Z,10.30
2018-01-29T04:40:24.557Z,10.30
2018-01-29T04:42:52.027Z,10.30
2018-01-29T04:45:19.495Z,10.40
2018-01-29T04:47:46.972Z,10.40
2018-01-29T04:50:14.426Z,10.40
2018-01-29T04:52:41.924Z,10.40
2018-01-29T04:55:09.386Z,10.40
2018-01-29T04:57:36.856Z,10.40
2018-01-29T05:00:04.325Z,10.40
2018-01-29T05:02:31.978Z,10.40
2018-01-29T05:04:59.444Z,10.40
2018-01-29T05:07:26.908Z,10.40
2018-01-29T05:09:54.386Z,10.30
2018-01-29T05:12:21.842Z,10.30
2018-01-29T05:14:49.310Z,10.20
2018-01-29T05:17:16.795Z,10.30
2018-01-29T05:19:44.271Z,10.30
2018-01-29T05:22:11.729Z,10.30
2018-01-29T05:24:39.201Z,10.20
2018-01-29T05:27:06.671Z,10.20
2018-01-29T05:29:34.150Z,10.20
2018-01-29T05:32:01.626Z,10.10
2018-01-29T05:34:29.859Z,10.10
2018-01-29T05:39:59.871Z,10.20
2018-01-29T05:42:27.333Z,10.20
2018-01-29T05:44:54.791Z,10.10
2018-01-29T05:47:22.261Z,10.10
2018-01-29T05:49:49.728Z,10.20
2018-01-29T05:52:17.979Z,10.20
2018-01-29T05:54:45.448Z,10.10
2018-01-29T05:57:12.918Z,10.10
2018-01-29T05:59:40.369Z,10.10
2018-01-29T06:02:07.848Z,10.20
2018-01-29T06:04:35.328Z,10.20
2018-01-29T06:07:02.800Z,10.30
2018-01-29T06:09:30.250Z,10.30
2018-01-29T06:11:57.699Z,10.30
2018-01-29T06:14:25.170Z,10.30
2018-01-29T06:16:52.626Z,10.30
2018-01-29T06:19:20.101Z,10.20
2018-01-29T06:21:47.557Z,10.20
2018-01-29T06:24:15.011Z,10.20
2018-01-29T06:26:42.477Z,10.20
2018-01-29T06:29:09.945Z,10.20
2018-01-29T06:31:37.396Z,10.20
2018-01-29T06:34:04.870Z,10.20
2018-01-29T06:36:32.331Z,10.20
2018-01-29T06:38:59.802Z,10.30
2018-01-29T06:41:27.263Z,10.30
2018-01-29T06:43:54.724Z,10.40
2018-01-29T06:46:22.187Z,10.40
2018-01-29T06:48:49.651Z,10.30
2018-01-29T06:51:17.896Z,10.40
2018-01-29T06:53:45.359Z,10.40
2018-01-29T06:56:12.828Z,10.40
2018-01-29T06:58:40.278Z,10.30
2018-01-29T07:01:07.755Z,10.40
2018-01-29T07:03:35.207Z,10.40
2018-01-29T07:06:02.715Z,10.30
2018-01-29T07:08:30.166Z,10.40
2018-01-29T07:10:57.626Z,10.40
2018-01-29T07:13:25.086Z,10.40
2018-01-29T07:15:52.542Z,10.40
2018-01-29T07:18:20.006Z,10.50
2018-01-29T07:20:47.484Z,10.50
2018-01-29T07:23:14.946Z,10.50
2018-01-29T07:25:42.428Z,10.50
2018-01-29T07:28:10.645Z,10.40
2018-01-29T07:30:38.124Z,10.40
2018-01-29T07:33:05.587Z,10.50
2018-01-29T07:35:33.072Z,10.50
2018-01-29T07:38:00.588Z,10.50
2018-01-29T07:40:28.057Z,10.50
2018-01-29T07:42:56.375Z,10.50
2018-01-29T07:45:23.962Z,10.50
2018-01-29T07:47:51.465Z,10.50
2018-01-29T07:50:18.948Z,10.50
2018-01-29T07:52:47.188Z,10.50
2018-01-29T07:55:15.222Z,10.50
2018-01-29T07:57:42.696Z,10.50
2018-01-29T08:00:10.165Z,10.50
2018-01-29T08:02:37.644Z,10.50
2018-01-29T08:05:05.113Z,10.50
2018-01-29T08:07:33.377Z,10.40
2018-01-29T08:10:00.846Z,10.50
2018-01-29T08:12:28.323Z,10.50
2018-01-29T08:14:55.795Z,10.60
2018-01-29T08:17:23.268Z,10.60
2018-01-29T08:19:50.744Z,10.50
2018-01-29T08:22:18.228Z,10.40
2018-01-29T08:24:46.036Z,10.50
2018-01-29T08:27:13.502Z,10.50
2018-01-29T08:29:40.980Z,10.60
2018-01-29T08:32:08.448Z,10.60
2018-01-29T08:34:35.937Z,10.60
2018-01-29T08:37:03.441Z,10.60
2018-01-29T08:39:30.912Z,10.60
2018-01-29T08:41:58.384Z,10.60
2018-01-29T08:44:25.852Z,10.70
2018-01-29T08:46:53.318Z,10.70
2018-01-29T08:49:20.792Z,10.70
2018-01-29T08:51:48.264Z,10.70
2018-01-29T08:54:15.757Z,10.70
2018-01-29T08:56:43.225Z,10.70
2018-01-29T08:59:10.700Z,10.70
2018-01-29T09:01:38.936Z,10.70
2018-01-29T09:04:06.432Z,10.70
2018-01-29T09:06:34.661Z,10.60
2018-01-29T09:09:02.164Z,10.60
2018-01-29T09:11:30.476Z,10.70
2018-01-29T09:13:57.936Z,10.70
2018-01-29T09:16:25.444Z,10.70
2018-01-29T09:18:52.953Z,10.60
2018-01-29T09:21:20.441Z,10.60
2018-01-29T09:23:47.900Z,10.60
2018-01-29T09:26:15.386Z,10.60
2018-01-29T09:28:42.848Z,10.60
2018-01-29T09:31:10.320Z,10.60
2018-01-29T09:33:37.796Z,10.70
2018-01-29T09:36:05.304Z,10.70
2018-01-29T09:38:32.776Z,10.70
2018-01-29T09:41:01.010Z,10.60
2018-01-29T09:43:28.485Z,10.60
2018-01-29T09:45:55.956Z,10.70
2018-01-29T09:48:23.433Z,10.70
2018-01-29T09:50:50.941Z,10.70
2018-01-29T09:53:18.433Z,10.70
2018-01-29T09:55:45.902Z,10.70
2018-01-29T09:58:14.173Z,10.70
2018-01-29T10:00:41.676Z,10.70
2018-01-29T10:03:09.189Z,10.70
2018-01-29T10:05:37.460Z,10.80
2018-01-29T10:08:04.939Z,10.80
2018-01-29T10:10:32.519Z,10.70
2018-01-29T10:13:00.127Z,10.80
2018-01-29T10:15:27.804Z,10.90
2018-01-29T10:17:55.445Z,11.00
2018-01-29T10:20:23.034Z,11.00
2018-01-29T10:22:51.305Z,11.10
2018-01-29T10:25:19.613Z,11.10
2018-01-29T10:27:47.170Z,11.10
2018-01-29T10:30:14.846Z,11.00
2018-01-29T10:32:43.309Z,10.90
2018-01-29T10:35:10.766Z,10.90
2018-01-29T10:37:38.289Z,11.00
2018-01-29T10:40:05.792Z,11.00
2018-01-29T10:42:33.272Z,11.00
2018-01-29T10:45:00.877Z,11.00
2018-01-29T10:47:29.103Z,10.90
2018-01-29T10:49:56.560Z,10.90
2018-01-29T10:52:24.816Z,10.90
2018-01-29T10:54:52.270Z,10.90
2018-01-29T10:57:19.751Z,10.90
2018-01-29T10:59:47.206Z,10.90
2018-01-29T11:02:14.703Z,10.90
2018-01-29T11:04:42.156Z,10.90
2018-01-29T11:07:09.624Z,11.00
2018-01-29T11:09:37.085Z,11.00
2018-01-29T11:12:04.546Z,11.00
2018-01-29T11:14:31.997Z,11.00
2018-01-29T11:16:59.477Z,11.10
2018-01-29T11:19:26.937Z,11.10
2018-01-29T11:21:54.398Z,11.10
2018-01-29T11:24:21.870Z,11.10
2018-01-29T11:26:49.340Z,11.20
2018-01-29T11:29:16.819Z,11.20
2018-01-29T11:31:44.294Z,11.20
2018-01-29T11:34:11.743Z,11.20
2018-01-29T11:36:39.204Z,11.20
2018-01-29T11:39:06.687Z,11.10
2018-01-29T11:41:34.251Z,11.00
2018-01-29T11:44:01.702Z,11.00
2018-01-29T11:46:29.161Z,11.00
2018-01-29T11:48:56.624Z,11.10
2018-01-29T11:51:24.082Z,11.00
2018-01-29T11:53:51.542Z,11.00
2018-01-29T11:56:19.028Z,11.10
2018-01-29T11:58:46.510Z,11.10
2018-01-29T12:01:14.048Z,11.10
2018-01-29T12:03:41.499Z,11.20
2018-01-29T12:06:08.950Z,11.20
2018-01-29T12:08:37.184Z,11.20
2018-01-29T12:11:04.639Z,11.20
2018-01-29T12:13:32.102Z,11.20
2018-01-29T12:15:59.551Z,11.10
2018-01-29T12:18:27.774Z,11.30
2018-01-29T12:20:55.236Z,11.30
2018-01-29T12:23:22.712Z,11.30
2018-01-29T12:25:50.154Z,11.40
2018-01-29T12:28:17.612Z,11.40
2018-01-29T12:30:45.085Z,11.40
2018-01-29T12:33:12.594Z,11.40
2018-01-29T12:35:40.075Z,11.40
2018-01-29T12:38:07.531Z,11.50
2018-01-29T12:40:34.998Z,11.40
2018-01-29T12:43:02.464Z,11.40
2018-01-29T12:45:29.931Z,11.40
2018-01-29T12:47:58.174Z,11.50
2018-01-29T12:50:25.644Z,11.50
2018-01-29T12:52:53.094Z,11.50
2018-01-29T12:55:20.588Z,11.40
2018-01-29T12:57:48.177Z,11.40
2018-01-29T13:00:15.634Z,11.40
2018-01-29T13:02:43.094Z,11.40
2018-01-29T13:05:10.561Z,11.40
2018-01-29T13:07:38.015Z,11.40
2018-01-29T13:10:05.475Z,11.30
2018-01-29T13:12:33.163Z,11.30
2018-01-29T13:15:00.610Z,11.30
2018-01-29T13:17:28.076Z,11.30
2018-01-29T13:19:55.566Z,11.40
2018-01-29T13:22:23.866Z,11.40
2018-01-29T13:24:51.432Z,11.40
2018-01-29T13:27:19.362Z,11.40
2018-01-29T13:29:47.628Z,11.40
2018-01-29T13:32:15.118Z,11.30
2018-01-29T13:34:43.321Z,11.30
2018-01-29T13:37:10.790Z,11.30
2018-01-29T13:39:38.584Z,11.40
2018-01-29T13:42:06.206Z,11.40
2018-01-29T13:44:33.702Z,11.30
2018-01-29T13:47:01.154Z,11.20
2018-01-29T13:49:28.627Z,11.30
2018-01-29T13:51:56.092Z,11.30
2018-01-29T13:54:23.679Z,11.20
2018-01-29T13:56:51.138Z,11.20
2018-01-29T13:59:18.607Z,11.20
2018-01-29T14:01:46.068Z,11.20
2018-01-29T14:04:13.535Z,11.20
2018-01-29T14:06:41.008Z,11.10
2018-01-29T14:09:08.471Z,11.10
2018-01-29T14:11:35.950Z,11.10
2018-01-29T14:14:04.180Z,11.00
2018-01-29T14:16:31.676Z,11.00
2018-01-29T14:18:59.132Z,11.00
2018-01-29T14:21:26.638Z,10.90
2018-01-29T14:23:54.311Z,10.90
2018-01-29T14:26:21.771Z,10.90
2018-01-29T14:28:49.227Z,10.90
2018-01-29T14:31:16.699Z,10.90
2018-01-29T14:33:44.158Z,10.90
2018-01-29T14:36:11.626Z,10.90
2018-01-29T14:38:39.078Z,10.90
2018-01-29T14:41:06.551Z,11.00
2018-01-29T14:43:34.791Z,11.10
2018-01-29T14:46:02.250Z,11.10
2018-01-29T14:48:29.711Z,11.10
2018-01-29T14:50:57.171Z,11.20
2018-01-29T14:53:24.646Z,11.10
2018-01-29T14:55:52.108Z,11.10
2018-01-29T14:58:19.575Z,11.10
2018-01-29T15:00:47.026Z,11.10
2018-01-29T15:03:14.499Z,11.10
2018-01-29T15:05:42.729Z,11.10
2018-01-29T15:08:10.194Z,11.00
2018-01-29T15:10:37.742Z,11.00
2018-01-29T15:13:05.232Z,11.00
2018-01-29T15:15:32.678Z,11.10
2018-01-29T15:18:00.149Z,11.10
2018-01-29T15:20:27.612Z,11.10
2018-01-29T15:22:55.072Z,11.10
2018-01-29T15:25:22.553Z,11.10
2018-01-29T15:27:50.013Z,11.10
2018-01-29T15:30:17.484Z,11.00
2018-01-29T15:32:44.963Z,11.10
2018-01-29T15:35:13.375Z,11.10
2018-01-29T15:37:41.600Z,10.90
2018-01-29T15:40:09.082Z,10.90
2018-01-29T15:42:36.539Z,11.00
2018-01-29T15:45:03.998Z,11.00
2018-01-29T15:47:31.467Z,11.00
2018-01-29T15:49:58.928Z,11.00
2018-01-29T15:52:26.396Z,10.90
2018-01-29T15:54:54.628Z,10.90
2018-01-29T15:57:22.099Z,10.90
2018-01-29T15:59:49.556Z,10.90
2018-01-29T16:02:17.043Z,11.00
2018-01-29T16:04:44.498Z,11.00
2018-01-29T16:07:11.968Z,10.90
2018-01-29T16:09:39.428Z,10.90
2018-01-29T16:12:07.994Z,10.90
2018-01-29T16:14:36.210Z,10.90
2018-01-29T16:17:03.762Z,10.90
2018-01-29T16:19:31.237Z,10.80
2018-01-29T16:21:58.748Z,10.80
2018-01-29T16:24:26.177Z,10.80
2018-01-29T16:26:53.673Z,10.80
2018-01-29T16:29:21.895Z,10.80
2018-01-29T16:31:49.379Z,10.80
2018-01-29T16:34:16.870Z,10.80
2018-01-29T16:36:44.332Z,10.90
2018-01-29T16:39:11.874Z,10.90
2018-01-29T16:41:39.334Z,10.90
2018-01-29T16:44:06.832Z,10.90
2018-01-29T16:46:34.298Z,10.90
2018-01-29T16:49:01.814Z,10.90
2018-01-29T16:51:29.270Z,10.90
2018-01-29T16:53:56.745Z,10.90
2018-01-29T16:56:24.198Z,11.00
2018-01-29T16:58:51.672Z,11.00
2018-01-29T17:01:19.146Z,11.00
2018-01-29T17:03:47.417Z,10.90
2018-01-29T17:06:14.930Z,10.90
2018-01-29T17:08:42.411Z,10.90
2018-01-29T17:11:09.883Z,10.90
2018-01-29T17:13:37.409Z,11.00
2018-01-29T17:16:04.858Z,11.00
2018-01-29T17:18:32.356Z,11.10
2018-01-29T17:20:59.823Z,11.10
2018-01-29T17:23:27.284Z,11.10
2018-01-29T17:25:54.756Z,11.00
2018-01-29T17:28:22.639Z,11.10
2018-01-29T17:30:50.107Z,11.10
2018-01-29T17:33:17.611Z,11.00
2018-01-29T17:35:45.086Z,11.00
2018-01-29T17:38:12.541Z,11.10
2018-01-29T17:40:40.011Z,11.00
2018-01-29T17:43:07.488Z,11.00
2018-01-29T17:45:34.952Z,11.00
2018-01-29T17:48:02.450Z,11.00
2018-01-29T17:50:29.923Z,11.00
2018-01-29T17:52:57.385Z,11.00
2018-01-29T17:55:24.842Z,11.00
2018-01-29T17:57:52.294Z,11.00
2018-01-29T18:00:19.766Z,11.00
2018-01-29T18:02:47.260Z,10.90
2018-01-29T18:05:14.699Z,10.90
2018-01-29T18:07:42.960Z,10.80
2018-01-29T18:10:10.416Z,10.80
2018-01-29T18:12:37.889Z,10.80
2018-01-29T18:15:05.358Z,10.90
2018-01-29T18:17:32.819Z,10.90
2018-01-29T18:20:00.317Z,11.00
2018-01-29T18:22:27.792Z,11.00
2018-01-29T18:24:55.247Z,11.00
2018-01-29T18:27:22.711Z,11.00
2018-01-29T18:29:50.168Z,11.00
2018-01-29T18:32:17.655Z,11.00
2018-01-29T18:34:45.130Z,11.00
2018-01-29T18:37:12.600Z,11.00
2018-01-29T18:39:40.073Z,11.00
2018-01-29T18:42:07.550Z,11.00
2018-01-29T18:44:35.054Z,11.00
2018-01-29T18:47:02.531Z,11.00
2018-01-29T18:49:30.041Z,11.00
2018-01-29T18:51:57.546Z,11.00
2018-01-29T18:54:25.072Z,11.00
2018-01-29T18:56:53.346Z,11.10
2018-01-29T18:59:20.807Z,11.10
2018-01-29T19:01:48.320Z,11.10
2018-01-29T19:04:15.786Z,11.10
2018-01-29T19:06:43.315Z,11.10
2018-01-29T19:09:10.782Z,11.10
2018-01-29T19:11:38.303Z,11.10
2018-01-29T19:14:05.823Z,11.10
2018-01-29T19:16:33.284Z,11.20
2018-01-29T19:19:00.749Z,11.20
2018-01-29T19:21:28.263Z,11.20
2018-01-29T19:23:55.805Z,11.20
2018-01-29T19:26:23.427Z,11.20
2018-01-29T19:28:50.940Z,11.20
2018-01-29T19:31:18.394Z,11.20
2018-01-29T19:33:46.255Z,11.20
2018-01-29T19:36:13.759Z,11.20
2018-01-29T19:38:41.274Z,11.20
2018-01-29T19:41:08.782Z,11.20
2018-01-29T19:43:36.304Z,11.20
2018-01-29T19:46:03.750Z,11.20
2018-01-29T19:48:31.265Z,11.20
2018-01-29T19:50:59.581Z,11.10
2018-01-29T19:53:27.040Z,11.10
2018-01-29T19:55:54.544Z,11.10
2018-01-29T19:58:22.054Z,11.20
2018-01-29T20:00:49.534Z,11.20
2018-01-29T20:03:16.995Z,11.10
2018-01-29T20:05:44.519Z,11.10
2018-01-29T20:08:12.033Z,11.10
2018-01-29T20:10:39.536Z,11.10
2018-01-29T20:13:07.047Z,11.10
2018-01-29T20:15:34.556Z,11.10
2018-01-29T20:18:02.066Z,11.00
2018-01-29T20:20:29.578Z,11.00
2018-01-29T20:22:57.094Z,11.10
2018-01-29T20:25:24.569Z,11.10
2018-01-29T20:27:52.789Z,11.00
2018-01-29T20:30:20.307Z,11.00
2018-01-29T20:32:47.802Z,11.00
2018-01-29T20:35:15.305Z,11.00
2018-01-29T20:37:42.809Z,11.00
2018-01-29T20:40:10.310Z,11.00
2018-01-29T20:42:37.828Z,11.00
2018-01-29T20:45:05.286Z,11.10
2018-01-29T20:47:32.815Z,11.00
2018-01-29T20:50:00.319Z,11.00
2018-01-29T20:52:27.818Z,11.00
2018-01-29T20:54:55.271Z,11.00
2018-01-29T20:57:22.809Z,10.90
2018-01-29T20:59:50.301Z,10.90
2018-01-29T21:02:18.543Z,10.90
2018-01-29T21:04:46.066Z,10.90
2018-01-29T21:07:13.582Z,10.80
2018-01-29T21:09:41.808Z,10.80
2018-01-29T21:12:10.238Z,10.80
2018-01-29T21:14:37.691Z,10.80
2018-01-29T21:17:05.161Z,10.80
2018-01-29T21:19:32.676Z,10.80
2018-01-29T21:22:00.186Z,10.80
2018-01-29T21:24:27.681Z,10.80
2018-01-29T21:26:55.186Z,10.80
2018-01-29T21:29:22.643Z,10.80
2018-01-29T21:31:50.098Z,10.80
2018-01-29T21:34:17.621Z,10.80
2018-01-29T21:36:45.128Z,10.70
2018-01-29T21:39:12.581Z,10.80
2018-01-29T21:41:40.088Z,10.80
2018-01-29T21:44:07.585Z,10.80
2018-01-29T21:46:35.857Z,10.70
2018-01-29T21:49:03.392Z,10.70
2018-01-29T21:51:30.898Z,10.70
2018-01-29T21:53:58.390Z,10.70
2018-01-29T21:56:25.892Z,10.70
2018-01-29T21:58:53.378Z,10.70
2018-01-29T22:01:20.874Z,10.70
2018-01-29T22:03:48.388Z,10.70
2018-01-29T22:06:15.864Z,10.70
2018-01-29T22:08:43.375Z,10.70
2018-01-29T22:11:10.840Z,10.70
2018-01-29T22:13:39.064Z,10.70
2018-01-29T22:16:06.547Z,10.70
2018-01-29T22:18:34.056Z,10.60
2018-01-29T22:21:01.568Z,10.60
2018-01-29T22:23:29.036Z,10.70
2018-01-29T22:25:57.317Z,10.60
2018-01-29T22:28:24.814Z,10.60
2018-01-29T22:30:52.313Z,10.60
2018-01-29T22:33:19.818Z,10.60
2018-01-29T22:35:47.330Z,10.60
2018-01-29T22:38:14.792Z,10.70
2018-01-29T22:40:42.286Z,10.60
2018-01-29T22:43:09.742Z,10.70
2018-01-29T22:45:37.203Z,10.70
2018-01-29T22:48:04.695Z,10.70
2018-01-29T22:50:32.152Z,10.60
2018-01-29T22:52:59.665Z,10.60
2018-01-29T22:55:27.119Z,10.60
2018-01-29T22:57:54.593Z,10.60
2018-01-29T23:00:22.105Z,10.60
2018-01-29T23:02:49.568Z,10.60
2018-01-29T23:05:17.025Z,10.60
2018-01-29T23:07:44.540Z,10.70
2018-01-29T23:10:11.992Z,10.70
2018-01-29T23:12:39.463Z,10.60
2018-01-29T23:15:06.915Z,10.60
2018-01-29T23:17:34.378Z,10.60
2018-01-29T23:20:01.840Z,10.60
2018-01-29T23:22:29.386Z,10.60
2018-01-29T23:24:56.828Z,10.60
2018-01-29T23:27:24.302Z,10.60
2018-01-29T23:29:51.750Z,10.60
2018-01-29T23:32:19.222Z,10.60
2018-01-29T23:34:46.670Z,10.60
2018-01-29T23:37:14.139Z,10.60
2018-01-29T23:39:41.599Z,10.60
2018-01-29T23:42:09.063Z,10.60
2018-01-29T23:44:36.533Z,10.60
2018-01-29T23:47:04.004Z,10.50
2018-01-29T23:49:32.243Z,10.50
2018-01-29T23:51:59.716Z,10.40
2018-01-29T23:54:27.167Z,10.40
2018-01-29T23:56:54.637Z,10.40
2018-01-29T23:59:22.087Z,10.20
